sensor_id;sensor_type;location;lat;lon;timestamp;P1;durP1;ratioP1;P2;durP2;ratioP2
84187;SDS011;74316;45.648;13.764;2024-01-11T00:00:48;12.88;;;6.53;;
84187;SDS011;74316;45.648;13.764;2024-01-11T00:03:14;18.77;;;6.43;;
84187;SDS011;74316;45.648;13.764;2024-01-11T00:05:40;12.15;;;6.57;;
84187;SDS011;74316;45.648;13.764;2024-01-11T00:08:06;11.85;;;6.05;;
84187;SDS011;74316;45.648;13.764;2024-01-11T00:10:33;13.48;;;6.07;;
84187;SDS011;74316;45.648;13.764;2024-01-11T00:12:58;10.30;;;6.15;;
84187;SDS011;74316;45.648;13.764;2024-01-11T00:15:24;11.68;;;6.05;;
84187;SDS011;74316;45.648;13.764;2024-01-11T00:17:50;10.68;;;5.70;;
84187;SDS011;74316;45.648;13.764;2024-01-11T00:20:16;15.52;;;6.68;;
84187;SDS011;74316;45.648;13.764;2024-01-11T00:22:42;16.40;;;6.20;;
84187;SDS011;74316;45.648;13.764;2024-01-11T00:25:07;10.98;;;6.00;;
84187;SDS011;74316;45.648;13.764;2024-01-11T00:27:34;16.13;;;6.20;;
84187;SDS011;74316;45.648;13.764;2024-01-11T00:30:00;16.20;;;6.13;;
84187;SDS011;74316;45.648;13.764;2024-01-11T00:32:26;10.32;;;5.68;;
84187;SDS011;74316;45.648;13.764;2024-01-11T00:34:52;12.43;;;5.80;;
84187;SDS011;74316;45.648;13.764;2024-01-11T00:37:17;12.45;;;5.90;;
84187;SDS011;74316;45.648;13.764;2024-01-11T00:39:43;10.40;;;6.28;;
84187;SDS011;74316;45.648;13.764;2024-01-11T00:42:09;8.73;;;6.03;;
84187;SDS011;74316;45.648;13.764;2024-01-11T00:44:35;14.85;;;6.20;;
84187;SDS011;74316;45.648;13.764;2024-01-11T00:47:01;13.88;;;6.32;;
84187;SDS011;74316;45.648;13.764;2024-01-11T00:49:27;9.15;;;5.63;;
84187;SDS011;74316;45.648;13.764;2024-01-11T00:51:52;11.25;;;6.43;;
84187;SDS011;74316;45.648;13.764;2024-01-11T00:54:18;8.43;;;5.80;;
84187;SDS011;74316;45.648;13.764;2024-01-11T00:56:44;9.57;;;6.10;;
84187;SDS011;74316;45.648;13.764;2024-01-11T00:59:09;10.27;;;5.78;;
84187;SDS011;74316;45.648;13.764;2024-01-11T01:01:35;10.02;;;6.20;;
84187;SDS011;74316;45.648;13.764;2024-01-11T01:04:01;10.95;;;5.47;;
84187;SDS011;74316;45.648;13.764;2024-01-11T01:06:27;11.43;;;6.00;;
84187;SDS011;74316;45.648;13.764;2024-01-11T01:08:53;9.98;;;5.68;;
84187;SDS011;74316;45.648;13.764;2024-01-11T01:11:20;11.50;;;6.30;;
84187;SDS011;74316;45.648;13.764;2024-01-11T01:13:45;7.97;;;5.38;;
84187;SDS011;74316;45.648;13.764;2024-01-11T01:16:12;12.98;;;5.32;;
84187;SDS011;74316;45.648;13.764;2024-01-11T01:18:39;9.98;;;5.35;;
84187;SDS011;74316;45.648;13.764;2024-01-11T01:21:05;9.02;;;5.45;;
84187;SDS011;74316;45.648;13.764;2024-01-11T01:23:32;12.77;;;6.10;;
84187;SDS011;74316;45.648;13.764;2024-01-11T01:25:58;12.30;;;5.20;;
84187;SDS011;74316;45.648;13.764;2024-01-11T01:28:24;8.52;;;5.95;;
84187;SDS011;74316;45.648;13.764;2024-01-11T01:30:49;9.18;;;5.45;;
84187;SDS011;74316;45.648;13.764;2024-01-11T01:33:16;8.25;;;5.32;;
84187;SDS011;74316;45.648;13.764;2024-01-11T01:35:43;8.85;;;5.70;;
84187;SDS011;74316;45.648;13.764;2024-01-11T01:38:11;7.75;;;5.28;;
84187;SDS011;74316;45.648;13.764;2024-01-11T01:40:37;8.13;;;5.05;;
84187;SDS011;74316;45.648;13.764;2024-01-11T01:43:06;8.32;;;5.45;;
84187;SDS011;74316;45.648;13.764;2024-01-11T01:47:59;9.40;;;5.28;;
84187;SDS011;74316;45.648;13.764;2024-01-11T01:50:25;9.88;;;5.53;;
84187;SDS011;74316;45.648;13.764;2024-01-11T01:52:52;11.82;;;6.07;;
84187;SDS011;74316;45.648;13.764;2024-01-11T01:55:18;6.65;;;5.22;;
84187;SDS011;74316;45.648;13.764;2024-01-11T01:57:45;11.68;;;5.38;;
84187;SDS011;74316;45.648;13.764;2024-01-11T02:00:12;7.90;;;5.05;;
84187;SDS011;74316;45.648;13.764;2024-01-11T02:02:43;8.35;;;5.20;;
84187;SDS011;74316;45.648;13.764;2024-01-11T02:05:10;10.77;;;5.28;;
84187;SDS011;74316;45.648;13.764;2024-01-11T02:07:38;8.02;;;5.00;;
84187;SDS011;74316;45.648;13.764;2024-01-11T02:10:05;8.45;;;5.20;;
84187;SDS011;74316;45.648;13.764;2024-01-11T02:12:33;15.10;;;5.20;;
84187;SDS011;74316;45.648;13.764;2024-01-11T02:15:01;9.77;;;4.93;;
84187;SDS011;74316;45.648;13.764;2024-01-11T02:17:28;5.63;;;5.05;;
84187;SDS011;74316;45.648;13.764;2024-01-11T02:19:54;9.32;;;4.90;;
84187;SDS011;74316;45.648;13.764;2024-01-11T02:22:24;10.35;;;5.13;;
84187;SDS011;74316;45.648;13.764;2024-01-11T02:24:55;8.85;;;5.25;;
84187;SDS011;74316;45.648;13.764;2024-01-11T02:27:22;6.07;;;5.05;;
84187;SDS011;74316;45.648;13.764;2024-01-11T02:29:48;10.13;;;5.20;;
84187;SDS011;74316;45.648;13.764;2024-01-11T02:32:15;10.57;;;4.90;;
84187;SDS011;74316;45.648;13.764;2024-01-11T02:34:40;5.85;;;4.78;;
84187;SDS011;74316;45.648;13.764;2024-01-11T02:37:07;7.07;;;4.60;;
84187;SDS011;74316;45.648;13.764;2024-01-11T02:39:33;7.70;;;5.00;;
84187;SDS011;74316;45.648;13.764;2024-01-11T02:41:59;5.97;;;4.47;;
84187;SDS011;74316;45.648;13.764;2024-01-11T02:44:26;5.97;;;4.63;;
84187;SDS011;74316;45.648;13.764;2024-01-11T02:46:53;12.75;;;4.85;;
84187;SDS011;74316;45.648;13.764;2024-01-11T02:49:18;6.07;;;5.00;;
84187;SDS011;74316;45.648;13.764;2024-01-11T02:51:44;6.68;;;4.40;;
84187;SDS011;74316;45.648;13.764;2024-01-11T02:54:10;8.88;;;4.57;;
84187;SDS011;74316;45.648;13.764;2024-01-11T02:56:35;8.10;;;4.82;;
84187;SDS011;74316;45.648;13.764;2024-01-11T02:59:01;6.95;;;4.88;;
84187;SDS011;74316;45.648;13.764;2024-01-11T03:01:27;7.28;;;4.85;;
84187;SDS011;74316;45.648;13.764;2024-01-11T03:03:57;7.35;;;4.20;;
84187;SDS011;74316;45.648;13.764;2024-01-11T03:06:23;15.27;;;5.00;;
84187;SDS011;74316;45.648;13.764;2024-01-11T03:08:49;5.45;;;4.05;;
84187;SDS011;74316;45.648;13.764;2024-01-11T03:11:15;5.00;;;4.38;;
84187;SDS011;74316;45.648;13.764;2024-01-11T03:13:41;6.57;;;4.35;;
84187;SDS011;74316;45.648;13.764;2024-01-11T03:16:07;10.77;;;4.70;;
84187;SDS011;74316;45.648;13.764;2024-01-11T03:18:33;11.07;;;4.47;;
84187;SDS011;74316;45.648;13.764;2024-01-11T03:20:59;7.65;;;4.18;;
84187;SDS011;74316;45.648;13.764;2024-01-11T03:23:25;7.95;;;4.53;;
84187;SDS011;74316;45.648;13.764;2024-01-11T03:25:51;8.40;;;4.47;;
84187;SDS011;74316;45.648;13.764;2024-01-11T03:28:17;7.80;;;4.30;;
84187;SDS011;74316;45.648;13.764;2024-01-11T03:30:42;6.13;;;4.20;;
84187;SDS011;74316;45.648;13.764;2024-01-11T03:33:08;7.80;;;4.72;;
84187;SDS011;74316;45.648;13.764;2024-01-11T03:35:34;5.18;;;4.07;;
84187;SDS011;74316;45.648;13.764;2024-01-11T03:38:00;4.70;;;3.95;;
84187;SDS011;74316;45.648;13.764;2024-01-11T03:40:26;5.35;;;4.32;;
84187;SDS011;74316;45.648;13.764;2024-01-11T03:42:52;6.32;;;4.45;;
84187;SDS011;74316;45.648;13.764;2024-01-11T03:45:18;4.25;;;3.85;;
84187;SDS011;74316;45.648;13.764;2024-01-11T03:47:47;5.72;;;4.15;;
84187;SDS011;74316;45.648;13.764;2024-01-11T03:50:12;4.68;;;4.10;;
84187;SDS011;74316;45.648;13.764;2024-01-11T03:52:39;7.43;;;4.50;;
84187;SDS011;74316;45.648;13.764;2024-01-11T03:55:05;6.70;;;4.05;;
84187;SDS011;74316;45.648;13.764;2024-01-11T03:57:31;5.40;;;4.10;;
84187;SDS011;74316;45.648;13.764;2024-01-11T03:59:57;4.90;;;4.05;;
84187;SDS011;74316;45.648;13.764;2024-01-11T04:02:23;5.57;;;4.35;;
84187;SDS011;74316;45.648;13.764;2024-01-11T04:04:50;5.78;;;4.13;;
84187;SDS011;74316;45.648;13.764;2024-01-11T04:07:15;5.38;;;4.38;;
84187;SDS011;74316;45.648;13.764;2024-01-11T04:09:42;4.95;;;3.72;;
84187;SDS011;74316;45.648;13.764;2024-01-11T04:12:08;9.63;;;4.75;;
84187;SDS011;74316;45.648;13.764;2024-01-11T04:14:37;5.30;;;4.03;;
84187;SDS011;74316;45.648;13.764;2024-01-11T04:17:04;4.70;;;4.03;;
84187;SDS011;74316;45.648;13.764;2024-01-11T04:19:30;4.90;;;3.58;;
84187;SDS011;74316;45.648;13.764;2024-01-11T04:21:59;5.28;;;3.90;;
84187;SDS011;74316;45.648;13.764;2024-01-11T04:24:25;5.65;;;4.25;;
84187;SDS011;74316;45.648;13.764;2024-01-11T04:26:51;4.30;;;3.90;;
84187;SDS011;74316;45.648;13.764;2024-01-11T04:29:17;5.13;;;4.07;;
84187;SDS011;74316;45.648;13.764;2024-01-11T04:31:43;4.47;;;3.95;;
84187;SDS011;74316;45.648;13.764;2024-01-11T04:34:09;5.25;;;3.78;;
84187;SDS011;74316;45.648;13.764;2024-01-11T04:36:37;4.05;;;3.65;;
84187;SDS011;74316;45.648;13.764;2024-01-11T04:39:02;6.15;;;3.50;;
84187;SDS011;74316;45.648;13.764;2024-01-11T04:41:28;4.28;;;3.88;;
84187;SDS011;74316;45.648;13.764;2024-01-11T04:43:54;7.97;;;3.75;;
84187;SDS011;74316;45.648;13.764;2024-01-11T04:46:21;4.82;;;3.67;;
84187;SDS011;74316;45.648;13.764;2024-01-11T04:48:48;7.20;;;3.67;;
84187;SDS011;74316;45.648;13.764;2024-01-11T04:51:15;5.28;;;3.83;;
84187;SDS011;74316;45.648;13.764;2024-01-11T04:53:42;7.45;;;3.53;;
84187;SDS011;74316;45.648;13.764;2024-01-11T04:56:10;4.40;;;3.63;;
84187;SDS011;74316;45.648;13.764;2024-01-11T04:58:39;4.78;;;3.53;;
84187;SDS011;74316;45.648;13.764;2024-01-11T05:01:05;5.50;;;4.45;;
84187;SDS011;74316;45.648;13.764;2024-01-11T05:03:31;4.13;;;3.78;;
84187;SDS011;74316;45.648;13.764;2024-01-11T05:06:00;4.75;;;3.72;;
84187;SDS011;74316;45.648;13.764;2024-01-11T05:08:27;5.75;;;3.70;;
84187;SDS011;74316;45.648;13.764;2024-01-11T05:10:54;6.95;;;3.92;;
84187;SDS011;74316;45.648;13.764;2024-01-11T05:13:19;3.85;;;3.33;;
84187;SDS011;74316;45.648;13.764;2024-01-11T05:15:45;4.22;;;3.75;;
84187;SDS011;74316;45.648;13.764;2024-01-11T05:18:12;5.28;;;3.60;;
84187;SDS011;74316;45.648;13.764;2024-01-11T05:20:38;3.88;;;3.58;;
84187;SDS011;74316;45.648;13.764;2024-01-11T05:23:04;4.32;;;3.67;;
84187;SDS011;74316;45.648;13.764;2024-01-11T05:25:30;6.15;;;3.50;;
84187;SDS011;74316;45.648;13.764;2024-01-11T05:27:59;4.70;;;3.58;;
84187;SDS011;74316;45.648;13.764;2024-01-11T05:30:25;5.13;;;3.47;;
84187;SDS011;74316;45.648;13.764;2024-01-11T05:32:52;4.85;;;4.10;;
84187;SDS011;74316;45.648;13.764;2024-01-11T05:35:18;5.53;;;3.83;;
84187;SDS011;74316;45.648;13.764;2024-01-11T05:37:44;3.72;;;3.42;;
84187;SDS011;74316;45.648;13.764;2024-01-11T05:40:10;4.15;;;3.50;;
84187;SDS011;74316;45.648;13.764;2024-01-11T05:42:36;4.05;;;3.65;;
84187;SDS011;74316;45.648;13.764;2024-01-11T05:45:04;4.07;;;3.55;;
84187;SDS011;74316;45.648;13.764;2024-01-11T05:47:30;6.78;;;3.70;;
84187;SDS011;74316;45.648;13.764;2024-01-11T05:49:56;6.95;;;3.45;;
84187;SDS011;74316;45.648;13.764;2024-01-11T05:52:22;8.73;;;3.78;;
84187;SDS011;74316;45.648;13.764;2024-01-11T05:54:48;3.75;;;3.20;;
84187;SDS011;74316;45.648;13.764;2024-01-11T05:57:14;7.93;;;3.60;;
84187;SDS011;74316;45.648;13.764;2024-01-11T05:59:43;7.45;;;3.92;;
84187;SDS011;74316;45.648;13.764;2024-01-11T06:02:29;6.35;;;3.53;;
84187;SDS011;74316;45.648;13.764;2024-01-11T06:04:56;15.35;;;3.80;;
84187;SDS011;74316;45.648;13.764;2024-01-11T06:07:23;10.70;;;3.53;;
84187;SDS011;74316;45.648;13.764;2024-01-11T06:09:48;10.18;;;3.45;;
84187;SDS011;74316;45.648;13.764;2024-01-11T06:12:14;8.98;;;3.90;;
84187;SDS011;74316;45.648;13.764;2024-01-11T06:14:39;11.93;;;4.13;;
84187;SDS011;74316;45.648;13.764;2024-01-11T06:17:05;7.55;;;3.88;;
84187;SDS011;74316;45.648;13.764;2024-01-11T06:19:31;7.50;;;3.70;;
84187;SDS011;74316;45.648;13.764;2024-01-11T06:21:57;16.75;;;4.03;;
84187;SDS011;74316;45.648;13.764;2024-01-11T06:24:23;18.55;;;4.10;;
84187;SDS011;74316;45.648;13.764;2024-01-11T06:26:49;15.25;;;3.75;;
84187;SDS011;74316;45.648;13.764;2024-01-11T06:29:16;10.13;;;4.43;;
84187;SDS011;74316;45.648;13.764;2024-01-11T06:31:42;15.60;;;3.92;;
84187;SDS011;74316;45.648;13.764;2024-01-11T06:34:07;13.82;;;4.20;;
84187;SDS011;74316;45.648;13.764;2024-01-11T06:36:34;20.08;;;4.00;;
84187;SDS011;74316;45.648;13.764;2024-01-11T06:39:01;8.20;;;4.00;;
84187;SDS011;74316;45.648;13.764;2024-01-11T06:41:27;13.77;;;4.13;;
84187;SDS011;74316;45.648;13.764;2024-01-11T06:43:54;15.70;;;3.88;;
84187;SDS011;74316;45.648;13.764;2024-01-11T06:46:20;14.07;;;3.72;;
84187;SDS011;74316;45.648;13.764;2024-01-11T06:48:49;12.35;;;3.65;;
84187;SDS011;74316;45.648;13.764;2024-01-11T06:51:15;15.15;;;4.15;;
84187;SDS011;74316;45.648;13.764;2024-01-11T06:53:41;16.33;;;3.90;;
84187;SDS011;74316;45.648;13.764;2024-01-11T06:56:17;13.73;;;4.20;;
84187;SDS011;74316;45.648;13.764;2024-01-11T06:58:44;18.13;;;3.97;;
84187;SDS011;74316;45.648;13.764;2024-01-11T07:01:10;9.75;;;5.05;;
84187;SDS011;74316;45.648;13.764;2024-01-11T07:03:37;18.13;;;4.40;;
84187;SDS011;74316;45.648;13.764;2024-01-11T07:06:02;12.27;;;4.60;;
84187;SDS011;74316;45.648;13.764;2024-01-11T07:08:29;11.50;;;4.18;;
84187;SDS011;74316;45.648;13.764;2024-01-11T07:10:55;11.55;;;3.88;;
84187;SDS011;74316;45.648;13.764;2024-01-11T07:13:21;10.20;;;4.40;;
84187;SDS011;74316;45.648;13.764;2024-01-11T07:15:48;7.65;;;4.28;;
84187;SDS011;74316;45.648;13.764;2024-01-11T07:18:14;6.70;;;3.63;;
84187;SDS011;74316;45.648;13.764;2024-01-11T07:20:40;10.65;;;4.30;;
84187;SDS011;74316;45.648;13.764;2024-01-11T07:23:07;15.27;;;4.15;;
84187;SDS011;74316;45.648;13.764;2024-01-11T07:25:32;12.63;;;4.25;;
84187;SDS011;74316;45.648;13.764;2024-01-11T07:28:00;9.48;;;4.35;;
84187;SDS011;74316;45.648;13.764;2024-01-11T07:30:26;10.68;;;4.22;;
84187;SDS011;74316;45.648;13.764;2024-01-11T07:32:52;15.20;;;4.68;;
84187;SDS011;74316;45.648;13.764;2024-01-11T07:35:18;11.60;;;4.57;;
84187;SDS011;74316;45.648;13.764;2024-01-11T07:37:45;10.45;;;4.35;;
84187;SDS011;74316;45.648;13.764;2024-01-11T07:40:12;13.07;;;4.50;;
84187;SDS011;74316;45.648;13.764;2024-01-11T07:42:39;10.63;;;4.22;;
84187;SDS011;74316;45.648;13.764;2024-01-11T07:45:06;9.30;;;4.15;;
84187;SDS011;74316;45.648;13.764;2024-01-11T07:47:33;9.52;;;4.07;;
84187;SDS011;74316;45.648;13.764;2024-01-11T07:49:59;9.32;;;3.83;;
84187;SDS011;74316;45.648;13.764;2024-01-11T07:52:25;7.97;;;3.90;;
84187;SDS011;74316;45.648;13.764;2024-01-11T07:54:51;11.52;;;4.07;;
84187;SDS011;74316;45.648;13.764;2024-01-11T07:57:22;7.53;;;3.70;;
84187;SDS011;74316;45.648;13.764;2024-01-11T07:59:48;6.93;;;4.20;;
84187;SDS011;74316;45.648;13.764;2024-01-11T08:02:14;9.32;;;4.10;;
84187;SDS011;74316;45.648;13.764;2024-01-11T08:04:41;8.43;;;4.15;;
84187;SDS011;74316;45.648;13.764;2024-01-11T08:07:08;7.43;;;4.38;;
84187;SDS011;74316;45.648;13.764;2024-01-11T08:09:34;9.90;;;4.50;;
84187;SDS011;74316;45.648;13.764;2024-01-11T08:11:59;11.05;;;4.10;;
84187;SDS011;74316;45.648;13.764;2024-01-11T08:14:25;6.85;;;3.55;;
84187;SDS011;74316;45.648;13.764;2024-01-11T08:16:51;9.43;;;3.95;;
84187;SDS011;74316;45.648;13.764;2024-01-11T08:19:18;11.90;;;3.95;;
84187;SDS011;74316;45.648;13.764;2024-01-11T08:21:44;5.57;;;3.40;;
84187;SDS011;74316;45.648;13.764;2024-01-11T08:24:11;5.07;;;3.60;;
84187;SDS011;74316;45.648;13.764;2024-01-11T08:26:37;9.50;;;3.78;;
84187;SDS011;74316;45.648;13.764;2024-01-11T08:29:03;10.60;;;4.25;;
84187;SDS011;74316;45.648;13.764;2024-01-11T08:31:30;5.25;;;3.30;;
84187;SDS011;74316;45.648;13.764;2024-01-11T08:33:56;6.05;;;3.30;;
84187;SDS011;74316;45.648;13.764;2024-01-11T08:36:22;7.20;;;3.30;;
84187;SDS011;74316;45.648;13.764;2024-01-11T08:38:48;10.95;;;4.05;;
84187;SDS011;74316;45.648;13.764;2024-01-11T08:41:14;10.55;;;3.88;;
84187;SDS011;74316;45.648;13.764;2024-01-11T08:43:41;8.55;;;3.95;;
84187;SDS011;74316;45.648;13.764;2024-01-11T08:46:07;6.28;;;3.88;;
84187;SDS011;74316;45.648;13.764;2024-01-11T08:48:33;9.80;;;4.03;;
84187;SDS011;74316;45.648;13.764;2024-01-11T08:50:59;5.22;;;3.70;;
84187;SDS011;74316;45.648;13.764;2024-01-11T08:53:25;6.95;;;3.47;;
84187;SDS011;74316;45.648;13.764;2024-01-11T08:55:51;6.22;;;3.35;;
84187;SDS011;74316;45.648;13.764;2024-01-11T08:58:18;6.20;;;3.35;;
84187;SDS011;74316;45.648;13.764;2024-01-11T09:00:44;5.18;;;3.53;;
84187;SDS011;74316;45.648;13.764;2024-01-11T09:03:10;3.78;;;3.22;;
84187;SDS011;74316;45.648;13.764;2024-01-11T09:05:37;5.03;;;3.38;;
84187;SDS011;74316;45.648;13.764;2024-01-11T09:08:03;7.03;;;3.75;;
84187;SDS011;74316;45.648;13.764;2024-01-11T09:10:32;8.52;;;3.70;;
84187;SDS011;74316;45.648;13.764;2024-01-11T09:12:57;6.13;;;3.70;;
84187;SDS011;74316;45.648;13.764;2024-01-11T09:15:24;9.13;;;3.25;;
84187;SDS011;74316;45.648;13.764;2024-01-11T09:17:50;8.32;;;3.75;;
84187;SDS011;74316;45.648;13.764;2024-01-11T09:20:16;8.05;;;3.40;;
84187;SDS011;74316;45.648;13.764;2024-01-11T09:22:44;4.50;;;3.03;;
84187;SDS011;74316;45.648;13.764;2024-01-11T09:25:10;9.77;;;3.42;;
84187;SDS011;74316;45.648;13.764;2024-01-11T09:27:35;5.28;;;3.25;;
84187;SDS011;74316;45.648;13.764;2024-01-11T09:30:02;3.92;;;3.30;;
84187;SDS011;74316;45.648;13.764;2024-01-11T09:32:29;5.25;;;3.30;;
84187;SDS011;74316;45.648;13.764;2024-01-11T09:34:56;7.15;;;3.10;;
84187;SDS011;74316;45.648;13.764;2024-01-11T09:37:22;12.85;;;3.80;;
84187;SDS011;74316;45.648;13.764;2024-01-11T09:39:49;6.30;;;3.30;;
84187;SDS011;74316;45.648;13.764;2024-01-11T09:42:15;6.18;;;3.42;;
84187;SDS011;74316;45.648;13.764;2024-01-11T09:44:41;6.07;;;3.60;;
84187;SDS011;74316;45.648;13.764;2024-01-11T09:47:08;5.85;;;3.45;;
84187;SDS011;74316;45.648;13.764;2024-01-11T09:49:35;3.40;;;2.95;;
84187;SDS011;74316;45.648;13.764;2024-01-11T09:52:05;3.50;;;3.10;;
84187;SDS011;74316;45.648;13.764;2024-01-11T09:54:33;5.72;;;3.03;;
84187;SDS011;74316;45.648;13.764;2024-01-11T09:57:00;4.40;;;3.40;;
84187;SDS011;74316;45.648;13.764;2024-01-11T09:59:29;4.10;;;3.20;;
84187;SDS011;74316;45.648;13.764;2024-01-11T10:01:56;3.90;;;3.10;;
84187;SDS011;74316;45.648;13.764;2024-01-11T10:04:22;3.45;;;3.15;;
84187;SDS011;74316;45.648;13.764;2024-01-11T10:06:49;4.40;;;3.60;;
84187;SDS011;74316;45.648;13.764;2024-01-11T10:09:17;4.22;;;3.35;;
84187;SDS011;74316;45.648;13.764;2024-01-11T10:11:43;6.15;;;3.85;;
84187;SDS011;74316;45.648;13.764;2024-01-11T10:14:10;6.93;;;3.85;;
84187;SDS011;74316;45.648;13.764;2024-01-11T10:16:38;6.90;;;4.10;;
84187;SDS011;74316;45.648;13.764;2024-01-11T10:19:03;8.60;;;3.70;;
84187;SDS011;74316;45.648;13.764;2024-01-11T10:21:29;11.15;;;4.00;;
84187;SDS011;74316;45.648;13.764;2024-01-11T10:23:55;5.00;;;3.47;;
84187;SDS011;74316;45.648;13.764;2024-01-11T10:26:23;4.45;;;3.40;;
84187;SDS011;74316;45.648;13.764;2024-01-11T10:28:50;3.55;;;3.25;;
84187;SDS011;74316;45.648;13.764;2024-01-11T10:31:15;6.18;;;3.70;;
84187;SDS011;74316;45.648;13.764;2024-01-11T10:33:41;9.20;;;3.60;;
84187;SDS011;74316;45.648;13.764;2024-01-11T10:36:07;11.05;;;3.63;;
84187;SDS011;74316;45.648;13.764;2024-01-11T10:38:35;6.13;;;3.47;;
84187;SDS011;74316;45.648;13.764;2024-01-11T10:41:01;6.35;;;3.33;;
84187;SDS011;74316;45.648;13.764;2024-01-11T10:43:31;3.87;;;3.47;;
84187;SDS011;74316;45.648;13.764;2024-01-11T10:46:00;4.00;;;2.90;;
84187;SDS011;74316;45.648;13.764;2024-01-11T10:48:30;3.40;;;3.20;;
84187;SDS011;74316;45.648;13.764;2024-01-11T10:51:00;4.57;;;3.42;;
84187;SDS011;74316;45.648;13.764;2024-01-11T10:53:46;3.47;;;3.17;;
84187;SDS011;74316;45.648;13.764;2024-01-11T10:56:13;5.85;;;2.90;;
84187;SDS011;74316;45.648;13.764;2024-01-11T10:58:41;3.72;;;3.42;;
84187;SDS011;74316;45.648;13.764;2024-01-11T11:01:10;4.63;;;2.97;;
84187;SDS011;74316;45.648;13.764;2024-01-11T11:03:38;3.88;;;2.97;;
84187;SDS011;74316;45.648;13.764;2024-01-11T11:06:04;4.95;;;3.33;;
84187;SDS011;74316;45.648;13.764;2024-01-11T11:08:34;4.85;;;2.90;;
84187;SDS011;74316;45.648;13.764;2024-01-11T11:11:02;4.95;;;3.17;;
84187;SDS011;74316;45.648;13.764;2024-01-11T11:13:31;5.03;;;2.95;;
84187;SDS011;74316;45.648;13.764;2024-01-11T11:15:58;8.52;;;3.25;;
84187;SDS011;74316;45.648;13.764;2024-01-11T11:18:24;3.78;;;3.25;;
84187;SDS011;74316;45.648;13.764;2024-01-11T11:20:50;7.00;;;3.25;;
84187;SDS011;74316;45.648;13.764;2024-01-11T11:23:17;4.18;;;2.85;;
84187;SDS011;74316;45.648;13.764;2024-01-11T11:25:47;3.85;;;2.88;;
84187;SDS011;74316;45.648;13.764;2024-01-11T11:28:15;5.05;;;2.70;;
84187;SDS011;74316;45.648;13.764;2024-01-11T11:30:42;3.58;;;3.17;;
84187;SDS011;74316;45.648;13.764;2024-01-11T11:33:09;5.70;;;2.95;;
84187;SDS011;74316;45.648;13.764;2024-01-11T11:35:54;5.45;;;2.80;;
84187;SDS011;74316;45.648;13.764;2024-01-11T11:38:23;3.00;;;2.80;;
84187;SDS011;74316;45.648;13.764;2024-01-11T11:40:59;3.30;;;2.80;;
84187;SDS011;74316;45.648;13.764;2024-01-11T11:43:26;3.30;;;3.00;;
84187;SDS011;74316;45.648;13.764;2024-01-11T11:45:53;7.60;;;3.05;;
84187;SDS011;74316;45.648;13.764;2024-01-11T11:51:10;3.03;;;2.63;;
84187;SDS011;74316;45.648;13.764;2024-01-11T11:53:38;3.90;;;2.70;;
84187;SDS011;74316;45.648;13.764;2024-01-11T11:56:05;3.03;;;2.80;;
84187;SDS011;74316;45.648;13.764;2024-01-11T11:58:32;3.40;;;3.08;;
84187;SDS011;74316;45.648;13.764;2024-01-11T12:00:59;5.40;;;2.90;;
84187;SDS011;74316;45.648;13.764;2024-01-11T12:03:29;3.17;;;2.72;;
84187;SDS011;74316;45.648;13.764;2024-01-11T12:05:56;3.45;;;2.92;;
84187;SDS011;74316;45.648;13.764;2024-01-11T12:08:23;2.90;;;2.70;;
84187;SDS011;74316;45.648;13.764;2024-01-11T12:10:49;4.60;;;2.92;;
84187;SDS011;74316;45.648;13.764;2024-01-11T12:13:16;2.83;;;2.60;;
84187;SDS011;74316;45.648;13.764;2024-01-11T12:15:42;3.22;;;2.88;;
84187;SDS011;74316;45.648;13.764;2024-01-11T12:18:08;3.15;;;2.83;;
84187;SDS011;74316;45.648;13.764;2024-01-11T12:20:33;4.00;;;2.70;;
84187;SDS011;74316;45.648;13.764;2024-01-11T12:22:59;3.45;;;2.83;;
84187;SDS011;74316;45.648;13.764;2024-01-11T12:25:27;3.40;;;2.70;;
84187;SDS011;74316;45.648;13.764;2024-01-11T12:27:52;3.88;;;3.13;;
84187;SDS011;74316;45.648;13.764;2024-01-11T12:30:22;4.53;;;2.90;;
84187;SDS011;74316;45.648;13.764;2024-01-11T12:32:48;4.50;;;3.20;;
84187;SDS011;74316;45.648;13.764;2024-01-11T12:35:15;5.97;;;2.70;;
84187;SDS011;74316;45.648;13.764;2024-01-11T12:40:26;4.90;;;3.17;;
84187;SDS011;74316;45.648;13.764;2024-01-11T12:42:53;3.53;;;3.22;;
84187;SDS011;74316;45.648;13.764;2024-01-11T12:45:19;4.85;;;3.40;;
84187;SDS011;74316;45.648;13.764;2024-01-11T12:47:46;4.18;;;3.88;;
84187;SDS011;74316;45.648;13.764;2024-01-11T12:50:11;5.20;;;3.78;;
84187;SDS011;74316;45.648;13.764;2024-01-11T12:52:38;4.47;;;3.50;;
84187;SDS011;74316;45.648;13.764;2024-01-11T12:55:06;3.58;;;3.15;;
84187;SDS011;74316;45.648;13.764;2024-01-11T12:57:35;5.70;;;3.55;;
84187;SDS011;74316;45.648;13.764;2024-01-11T13:00:11;4.10;;;3.70;;
84187;SDS011;74316;45.648;13.764;2024-01-11T13:02:39;3.88;;;3.58;;
84187;SDS011;74316;45.648;13.764;2024-01-11T13:05:05;4.63;;;3.67;;
84187;SDS011;74316;45.648;13.764;2024-01-11T13:07:52;4.90;;;3.42;;
84187;SDS011;74316;45.648;13.764;2024-01-11T13:10:18;4.05;;;3.17;;
84187;SDS011;74316;45.648;13.764;2024-01-11T13:12:43;4.05;;;3.58;;
84187;SDS011;74316;45.648;13.764;2024-01-11T13:15:10;4.85;;;3.08;;
84187;SDS011;74316;45.648;13.764;2024-01-11T13:17:36;4.28;;;3.40;;
84187;SDS011;74316;45.648;13.764;2024-01-11T13:20:02;4.95;;;3.15;;
84187;SDS011;74316;45.648;13.764;2024-01-11T13:22:30;3.78;;;3.45;;
84187;SDS011;74316;45.648;13.764;2024-01-11T13:24:56;3.85;;;3.33;;
84187;SDS011;74316;45.648;13.764;2024-01-11T13:27:21;4.65;;;3.28;;
84187;SDS011;74316;45.648;13.764;2024-01-11T13:29:47;5.25;;;3.13;;
84187;SDS011;74316;45.648;13.764;2024-01-11T13:32:14;3.25;;;3.03;;
84187;SDS011;74316;45.648;13.764;2024-01-11T13:34:40;4.88;;;3.30;;
84187;SDS011;74316;45.648;13.764;2024-01-11T13:37:07;3.45;;;3.15;;
84187;SDS011;74316;45.648;13.764;2024-01-11T13:39:33;3.72;;;2.85;;
84187;SDS011;74316;45.648;13.764;2024-01-11T13:41:59;5.50;;;3.17;;
84187;SDS011;74316;45.648;13.764;2024-01-11T13:44:25;4.90;;;3.10;;
84187;SDS011;74316;45.648;13.764;2024-01-11T13:46:51;3.25;;;2.80;;
84187;SDS011;74316;45.648;13.764;2024-01-11T13:49:16;4.15;;;2.88;;
84187;SDS011;74316;45.648;13.764;2024-01-11T13:51:43;3.20;;;2.70;;
84187;SDS011;74316;45.648;13.764;2024-01-11T13:54:10;3.38;;;3.08;;
84187;SDS011;74316;45.648;13.764;2024-01-11T13:56:37;4.10;;;3.33;;
84187;SDS011;74316;45.648;13.764;2024-01-11T13:59:03;3.17;;;2.85;;
84187;SDS011;74316;45.648;13.764;2024-01-11T14:01:29;2.88;;;2.67;;
84187;SDS011;74316;45.648;13.764;2024-01-11T14:03:55;3.53;;;2.92;;
84187;SDS011;74316;45.648;13.764;2024-01-11T14:06:21;3.35;;;3.05;;
84187;SDS011;74316;45.648;13.764;2024-01-11T14:08:47;3.55;;;2.60;;
84187;SDS011;74316;45.648;13.764;2024-01-11T14:11:12;3.47;;;3.08;;
84187;SDS011;74316;45.648;13.764;2024-01-11T14:13:39;4.72;;;2.97;;
84187;SDS011;74316;45.648;13.764;2024-01-11T14:16:05;5.35;;;3.05;;
84187;SDS011;74316;45.648;13.764;2024-01-11T14:18:32;5.03;;;2.92;;
84187;SDS011;74316;45.648;13.764;2024-01-11T14:20:58;6.60;;;3.55;;
84187;SDS011;74316;45.648;13.764;2024-01-11T14:23:24;5.18;;;2.70;;
84187;SDS011;74316;45.648;13.764;2024-01-11T14:25:50;3.40;;;3.10;;
84187;SDS011;74316;45.648;13.764;2024-01-11T14:28:17;3.92;;;3.15;;
84187;SDS011;74316;45.648;13.764;2024-01-11T14:30:43;5.32;;;3.10;;
84187;SDS011;74316;45.648;13.764;2024-01-11T14:33:10;6.10;;;3.30;;
84187;SDS011;74316;45.648;13.764;2024-01-11T14:35:36;5.53;;;3.30;;